Time;durP1;ratioP1;P1;durP2;ratioP2;P2;SDS_P1;SDS_P2;PMS_P1;PMS_P2;Temp;Humidity;BMP_temperature;BMP_pressure;BME280_temperature;BME280_humidity;BME280_pressure;Samples;Min_cycle;Max_cycle;Signal;HPM_P1;HPM_P2
2022/03/31 00:00:05;;;;;;;6.78;5.72;;;;;;;6.39;64.45;100058.16;5022012;28;20515;-76
2022/03/31 00:02:31;;;;;;;6.90;6.20;;;;;;;6.39;64.52;100067.78;5036598;28;20558;-77
2022/03/31 00:04:57;;;;;;;7.05;5.75;;;;;;;6.37;64.13;100067.03;5030624;28;20037;-77
2022/03/31 00:07:22;;;;;;;7.07;6.28;;;;;;;6.35;64.57;100055.88;5030210;28;20528;-76
2022/03/31 00:09:47;;;;;;;7.15;6.00;;;;;;;6.33;64.99;100069.03;5030255;28;20045;-77
2022/03/31 00:12:13;;;;;;;7.82;5.93;;;;;;;6.31;64.79;100064.84;5029410;28;20029;-77
2022/03/31 00:14:38;;;;;;;6.30;5.70;;;;;;;6.30;65.28;100066.63;5028625;28;20079;-77
2022/03/31 00:17:04;;;;;;;7.35;6.00;;;;;;;6.28;64.63;100077.19;5029926;28;20025;-77
2022/03/31 00:19:29;;;;;;;6.78;6.07;;;;;;;6.24;65.00;100077.50;5036705;28;20079;-77
2022/03/31 00:22:29;;;;;;;7.32;6.40;;;;;;;6.27;65.00;100085.97;5034998;28;20095;-77
2022/03/31 00:24:54;;;;;;;7.03;6.20;;;;;;;6.23;65.08;100079.28;5033318;28;20021;-77
2022/03/31 00:27:20;;;;;;;10.88;6.35;;;;;;;6.21;65.10;100078.56;5028097;28;20096;-77
2022/03/31 00:29:45;;;;;;;7.40;6.68;;;;;;;6.21;65.43;100075.94;5029331;28;20026;-77
2022/03/31 00:32:11;;;;;;;8.20;6.40;;;;;;;6.21;65.15;100075.94;5021868;28;20510;-77
2022/03/31 00:34:36;;;;;;;8.40;6.65;;;;;;;6.19;65.31;100070.00;5021810;28;20057;-77
2022/03/31 00:37:02;;;;;;;8.10;6.10;;;;;;;6.19;65.47;100072.59;5013975;28;20496;-77
2022/03/31 00:39:33;;;;;;;7.85;6.20;;;;;;;6.20;65.38;100063.81;5028685;28;20029;-77
2022/03/31 00:42:06;;;;;;;8.73;7.40;;;;;;;6.17;65.63;100071.88;5030708;28;20373;-77
2022/03/31 00:44:31;;;;;;;7.82;7.03;;;;;;;6.15;65.46;100071.16;5030720;28;20021;-77
2022/03/31 00:46:57;;;;;;;8.65;7.30;;;;;;;6.12;65.32;100063.53;5028889;28;20381;-76
2022/03/31 00:49:24;;;;;;;8.52;7.63;;;;;;;6.10;65.67;100070.63;5030564;28;20377;-77
2022/03/31 00:51:52;;;;;;;8.90;7.70;;;;;;;6.09;65.86;100071.56;5024100;28;20044;-77
2022/03/31 00:54:23;;;;;;;9.32;8.18;;;;;;;6.06;66.03;100069.16;5029724;28;20029;-76
2022/03/31 00:56:49;;;;;;;9.48;7.93;;;;;;;6.07;66.31;100065.63;5030320;28;20448;-77
2022/03/31 00:59:17;;;;;;;10.38;8.40;;;;;;;6.06;66.39;100069.16;5029998;28;20037;-76
2022/03/31 01:01:44;;;;;;;11.55;8.98;;;;;;;6.04;66.54;100063.22;5029532;28;20025;-77
2022/03/31 01:04:11;;;;;;;11.32;9.52;;;;;;;6.03;66.67;100053.72;5049501;28;20032;-76
2022/03/31 01:06:36;;;;;;;12.07;9.38;;;;;;;6.02;66.44;100057.25;5039207;28;20604;-76
2022/03/31 01:09:04;;;;;;;12.10;8.93;;;;;;;6.00;66.84;100051.28;5028053;28;20108;-77
2022/03/31 01:11:30;;;;;;;12.68;9.43;;;;;;;5.98;66.45;100050.53;5028037;28;20025;-77
2022/03/31 01:13:56;;;;;;;10.50;8.82;;;;;;;5.99;67.01;100052.22;5029320;28;20056;-77
2022/03/31 01:16:22;;;;;;;12.13;9.32;;;;;;;5.96;66.90;100047.19;5028945;28;20485;-77
2022/03/31 01:18:48;;;;;;;13.60;10.55;;;;;;;5.97;67.52;100043.66;5028360;28;20028;-77
2022/03/31 01:21:14;;;;;;;12.70;9.70;;;;;;;5.93;67.48;100042.19;5029486;28;20045;-76
2022/03/31 01:23:39;;;;;;;12.90;10.18;;;;;;;5.94;67.57;100038.63;5017365;28;20597;-77
2022/03/31 01:26:09;;;;;;;12.48;9.73;;;;;;;5.92;67.52;100035.28;5009362;28;20037;-77
2022/03/31 01:28:36;;;;;;;11.98;9.43;;;;;;;5.92;67.21;100040.53;5009164;28;20030;-77
2022/03/31 01:31:02;;;;;;;11.70;9.45;;;;;;;5.92;67.97;100043.13;5009388;28;20033;-77
2022/03/31 01:33:28;;;;;;;11.80;8.70;;;;;;;5.91;67.75;100044.06;5009430;28;20057;-76
2022/03/31 01:35:54;;;;;;;10.60;8.68;;;;;;;5.90;67.64;100037.19;5007823;28;20021;-77
2022/03/31 01:38:19;;;;;;;11.77;8.85;;;;;;;5.85;67.67;100029.63;5023045;28;20501;-76
2022/03/31 01:40:45;;;;;;;13.15;10.07;;;;;;;5.86;67.77;100033.06;5018781;28;20025;-77
2022/03/31 01:43:11;;;;;;;11.75;10.45;;;;;;;5.84;68.02;100030.56;5042648;28;20108;-77
2022/03/31 01:45:37;;;;;;;16.00;11.32;;;;;;;5.81;68.46;100022.94;5034409;28;20105;-76
2022/03/31 01:48:03;;;;;;;12.65;10.43;;;;;;;5.78;68.28;100027.53;5039631;28;20022;-77
2022/03/31 01:50:29;;;;;;;12.95;10.98;;;;;;;5.78;68.46;100020.53;5028472;28;20030;-77
2022/03/31 01:52:54;;;;;;;12.18;10.32;;;;;;;5.77;68.71;100020.66;5038209;28;20488;-76
2022/03/31 01:55:19;;;;;;;14.25;10.65;;;;;;;5.73;68.90;100025.25;5042591;28;20463;-76
2022/03/31 01:57:45;;;;;;;14.13;10.98;;;;;;;5.71;69.33;100015.84;5028482;28;20021;-77
2022/03/31 02:00:13;;;;;;;15.52;11.30;;;;;;;5.70;70.06;100019.41;5028555;28;20083;-76
2022/03/31 02:02:39;;;;;;;17.05;12.57;;;;;;;5.66;69.82;100014.38;5025770;28;20124;-76
2022/03/31 02:05:06;;;;;;;16.98;12.38;;;;;;;5.62;69.86;100006.88;5035307;28;20116;-77
2022/03/31 02:07:32;;;;;;;16.20;12.95;;;;;;;5.63;69.71;100006.75;5029211;28;20018;-76
2022/03/31 02:09:58;;;;;;;16.63;12.40;;;;;;;5.59;70.43;100007.88;5028969;28;20484;-76
2022/03/31 02:12:24;;;;;;;17.30;13.13;;;;;;;5.57;70.24;100006.31;5026716;28;20032;-76
2022/03/31 02:14:49;;;;;;;17.08;12.93;;;;;;;5.54;70.39;99996.91;5030193;28;20029;-76
2022/03/31 02:17:15;;;;;;;19.73;12.55;;;;;;;5.55;70.48;100005.56;5036715;28;20021;-77
2022/03/31 02:19:41;;;;;;;17.45;13.48;;;;;;;5.51;71.12;100006.72;5028262;28;20017;-76
2022/03/31 02:22:07;;;;;;;17.70;14.00;;;;;;;5.48;71.37;99996.50;5033276;28;20098;-76
2022/03/31 02:24:35;;;;;;;17.17;12.80;;;;;;;5.45;71.20;100000.16;5031371;28;20033;-77
2022/03/31 02:27:05;;;;;;;19.48;13.63;;;;;;;5.44;71.44;99998.47;5035739;28;20021;-77
2022/03/31 02:29:31;;;;;;;16.33;12.05;;;;;;;5.44;71.61;100008.91;5028488;28;20121;-77
2022/03/31 02:31:56;;;;;;;13.93;11.05;;;;;;;5.39;72.25;100000.56;5024272;28;20412;-77
2022/03/31 02:34:22;;;;;;;15.82;11.82;;;;;;;5.38;72.41;100003.25;5031794;28;20638;-76
2022/03/31 02:36:48;;;;;;;16.15;12.05;;;;;;;5.33;72.53;99995.75;5030354;28;20123;-76
2022/03/31 02:39:13;;;;;;;13.98;11.60;;;;;;;5.30;72.35;100001.16;5035226;28;20060;-76
2022/03/31 02:41:40;;;;;;;16.80;12.65;;;;;;;5.25;72.79;99998.88;5036223;28;20561;-77
2022/03/31 02:44:06;;;;;;;14.52;10.63;;;;;;;5.22;73.51;99998.22;5032272;28;20022;-77
2022/03/31 02:46:32;;;;;;;14.15;9.98;;;;;;;5.22;73.93;99998.22;5031913;28;20104;-77
2022/03/31 02:48:58;;;;;;;12.10;10.10;;;;;;;5.21;74.63;99993.94;5032172;28;20557;-76
2022/03/31 02:51:25;;;;;;;13.35;10.05;;;;;;;5.18;74.98;99987.13;5031830;28;20389;-77
2022/03/31 02:56:35;;;;;;;14.20;10.38;;;;;;;5.10;75.98;99985.97;5027662;28;20103;-77
2022/03/31 02:59:01;;;;;;;15.30;10.95;;;;;;;5.06;76.41;99981.91;5020318;28;20469;-77
2022/03/31 03:01:27;;;;;;;14.45;11.05;;;;;;;5.01;76.16;99975.22;5013686;28;20033;-77
2022/03/31 03:03:59;;;;;;;16.25;10.32;;;;;;;4.99;76.36;99977.09;5033123;28;20067;-77
2022/03/31 03:06:25;;;;;;;14.30;11.10;;;;;;;4.95;77.23;99975.63;5030580;28;20488;-77
2022/03/31 03:08:51;;;;;;;12.35;10.20;;;;;;;4.93;76.92;99967.06;5050525;28;20216;-76
2022/03/31 03:11:17;;;;;;;10.18;9.10;;;;;;;4.87;77.33;99967.47;5037986;28;20021;-77
2022/03/31 03:13:46;;;;;;;11.13;7.82;;;;;;;4.81;76.99;99967.03;5037086;28;20016;-77
2022/03/31 03:16:12;;;;;;;8.40;7.50;;;;;;;4.80;77.11;99970.53;5046931;28;20025;-77
2022/03/31 03:18:39;;;;;;;7.55;6.85;;;;;;;4.78;77.04;99968.03;5031829;28;20022;-76
2022/03/31 03:21:06;;;;;;;7.55;6.63;;;;;;;4.71;77.04;99972.78;5031179;28;20118;-77
2022/03/31 03:23:33;;;;;;;7.68;6.72;;;;;;;4.65;77.48;99970.59;5018902;28;20470;-77
2022/03/31 03:25:58;;;;;;;7.05;6.35;;;;;;;4.59;77.66;99977.97;5034672;28;20185;-77
2022/03/31 03:28:24;;;;;;;5.88;5.28;;;;;;;4.54;77.38;99969.59;5029844;28;20389;-76
2022/03/31 03:30:49;;;;;;;6.68;5.20;;;;;;;4.53;76.43;99963.56;5031471;28;20028;-77
2022/03/31 03:33:15;;;;;;;5.57;4.68;;;;;;;4.47;77.35;99969.16;5031003;28;20494;-77
2022/03/31 03:35:41;;;;;;;6.72;5.00;;;;;;;4.37;77.40;99963.66;5030540;28;20474;-76
2022/03/31 03:38:07;;;;;;;4.88;4.47;;;;;;;4.32;77.80;99965.72;5036306;28;20033;-76
2022/03/31 03:40:32;;;;;;;4.32;3.92;;;;;;;4.26;77.14;99970.47;5042087;28;20036;-76
2022/03/31 03:42:58;;;;;;;4.00;3.65;;;;;;;4.18;76.68;99965.75;5032795;28;20017;-76
2022/03/31 03:45:23;;;;;;;3.92;3.63;;;;;;;4.12;77.96;99960.09;5038945;28;20363;-76
2022/03/31 03:47:49;;;;;;;3.75;3.42;;;;;;;4.03;77.47;99969.31;5030617;28;20100;-76
2022/03/31 03:50:15;;;;;;;4.15;3.75;;;;;;;3.98;77.80;99971.31;5027314;28;20017;-76
2022/03/31 03:52:41;;;;;;;4.03;3.63;;;;;;;3.91;77.83;99978.66;5026455;28;20021;-77
2022/03/31 03:55:07;;;;;;;3.83;3.53;;;;;;;3.84;77.73;99979.97;5030423;28;20021;-76
2022/03/31 03:57:32;;;;;;;3.72;3.40;;;;;;;3.78;78.04;99977.75;5025383;28;20433;-76
2022/03/31 03:59:58;;;;;;;3.60;3.30;;;;;;;3.70;78.14;99983.41;5010921;28;20026;-76
2022/03/31 04:02:23;;;;;;;3.88;3.10;;;;;;;3.64;77.77;99982.94;5030623;28;20106;-76
2022/03/31 04:04:48;;;;;;;4.18;3.33;;;;;;;3.60;79.22;99982.28;5032973;28;20075;-76
2022/03/31 04:07:14;;;;;;;4.28;3.65;;;;;;;3.55;79.75;99979.09;5028064;28;20099;-76
2022/03/31 04:09:39;;;;;;;4.32;3.92;;;;;;;3.52;80.21;99981.03;5030003;28;20417;-76
2022/03/31 04:12:05;;;;;;;3.72;3.42;;;;;;;3.50;80.52;99980.28;5028576;28;20428;-76
2022/03/31 04:14:30;;;;;;;5.70;3.90;;;;;;;3.49;80.90;99983.81;5025680;28;20061;-75
2022/03/31 04:16:56;;;;;;;4.20;3.80;;;;;;;3.46;81.27;99984.84;5045938;28;20685;-76
2022/03/31 04:19:22;;;;;;;4.05;3.75;;;;;;;3.42;80.63;99978.16;5029635;28;20041;-75
2022/03/31 04:21:47;;;;;;;4.75;4.22;;;;;;;3.38;81.27;99984.47;5030772;28;20029;-75
2022/03/31 04:24:12;;;;;;;4.60;4.05;;;;;;;3.34;81.81;99986.41;5030455;28;20428;-77
2022/03/31 04:26:38;;;;;;;5.38;4.10;;;;;;;3.26;82.15;99982.56;5030025;28;20029;-77
2022/03/31 04:29:08;;;;;;;3.90;3.60;;;;;;;3.23;82.69;99990.56;5030611;28;20033;-77
2022/03/31 04:31:35;;;;;;;4.10;3.70;;;;;;;3.12;82.22;99981.59;5022274;28;20116;-77
2022/03/31 04:34:03;;;;;;;4.28;3.30;;;;;;;3.09;82.69;99976.56;5030350;28;20045;-77
2022/03/31 04:36:29;;;;;;;4.65;3.25;;;;;;;3.09;82.96;99986.13;5063048;28;20087;-77
2022/03/31 04:38:54;;;;;;;3.60;3.30;;;;;;;3.03;83.00;99989.91;5028540;28;20445;-77
2022/03/31 04:41:21;;;;;;;3.35;3.05;;;;;;;2.97;83.27;99985.06;5029035;28;20368;-75
2022/03/31 04:43:46;;;;;;;4.10;3.00;;;;;;;2.96;83.41;99988.59;5062007;28;20116;-75
2022/03/31 04:46:11;;;;;;;3.00;2.70;;;;;;;2.91;83.46;99982.81;5026558;28;20131;-75
2022/03/31 04:48:37;;;;;;;3.33;2.70;;;;;;;2.92;83.27;99984.50;5011474;28;20485;-75
2022/03/31 04:51:02;;;;;;;3.20;2.72;;;;;;;2.91;84.27;99992.38;5034638;28;20075;-75
2022/03/31 04:53:27;;;;;;;4.38;2.85;;;;;;;2.83;84.41;99992.81;5029018;28;20033;-75
2022/03/31 04:55:53;;;;;;;3.40;2.72;;;;;;;2.81;84.20;99986.88;5030861;28;20033;-75
2022/03/31 04:58:18;;;;;;;3.22;2.80;;;;;;;2.73;84.15;99989.84;5029528;28;20022;-75
2022/03/31 05:00:44;;;;;;;3.83;3.00;;;;;;;2.70;85.04;99994.38;5028709;28;20040;-75
2022/03/31 05:03:09;;;;;;;3.15;2.95;;;;;;;2.67;84.97;99991.97;5028077;28;20405;-75
2022/03/31 05:05:35;;;;;;;4.53;3.00;;;;;;;2.65;85.33;99991.22;5041515;28;20094;-75
2022/03/31 05:08:01;;;;;;;3.30;3.00;;;;;;;2.63;85.26;99993.06;5027386;28;20095;-75
2022/03/31 05:10:26;;;;;;;3.65;3.20;;;;;;;2.62;85.94;99996.56;5018847;28;20033;-75
2022/03/31 05:12:52;;;;;;;3.63;2.97;;;;;;;2.62;85.63;99994.81;5041030;28;20033;-75
2022/03/31 05:15:17;;;;;;;3.60;3.30;;;;;;;2.59;85.27;99997.59;5034858;28;20071;-75
2022/03/31 05:17:42;;;;;;;4.05;3.00;;;;;;;2.53;85.03;99987.53;5028901;28;20025;-75
2022/03/31 05:20:10;;;;;;;3.85;2.70;;;;;;;2.52;85.12;99996.25;5027579;28;20068;-75
2022/03/31 05:22:38;;;;;;;3.53;3.10;;;;;;;2.48;85.29;99995.59;5032195;28;20436;-75
2022/03/31 05:25:05;;;;;;;3.60;2.80;;;;;;;2.45;85.00;99994.91;5038239;28;20028;-74
2022/03/31 05:27:30;;;;;;;4.90;3.00;;;;;;;2.41;85.45;100008.97;5035983;28;20112;-74
2022/03/31 05:29:57;;;;;;;3.15;2.80;;;;;;;2.40;85.53;100000.34;5044102;28;20814;-74
2022/03/31 05:32:23;;;;;;;2.90;2.70;;;;;;;2.35;85.54;99999.72;5022929;28;20109;-74
2022/03/31 05:34:48;;;;;;;5.07;2.83;;;;;;;2.32;85.19;99997.31;5036608;28;20045;-74
2022/03/31 05:37:14;;;;;;;3.33;2.63;;;;;;;2.27;85.50;99996.72;5036283;28;20394;-74
2022/03/31 05:39:40;;;;;;;3.17;2.83;;;;;;;2.24;85.61;100007.25;5038380;28;20114;-73
2022/03/31 05:42:06;;;;;;;3.10;2.80;;;;;;;2.21;85.19;100004.84;5035754;28;20036;-73
2022/03/31 05:44:31;;;;;;;2.95;2.75;;;;;;;2.19;85.22;100006.69;5023941;28;20341;-73
2022/03/31 05:46:59;;;;;;;3.08;2.88;;;;;;;2.07;85.87;100005.56;5012615;28;20434;-73
2022/03/31 05:49:24;;;;;;;3.63;2.92;;;;;;;2.05;85.40;100004.81;5010318;28;20013;-73
2022/03/31 05:51:49;;;;;;;2.80;2.60;;;;;;;2.01;85.74;100005.06;5011353;28;20491;-76
2022/03/31 05:54:15;;;;;;;3.08;2.78;;;;;;;1.99;85.59;100001.69;5036468;28;20027;-76
2022/03/31 05:56:40;;;;;;;3.33;2.40;;;;;;;1.99;86.28;100001.69;5035512;28;20021;-75
2022/03/31 05:59:06;;;;;;;3.22;2.92;;;;;;;1.96;86.73;99997.50;5040081;28;20500;-75
2022/03/31 06:01:31;;;;;;;2.72;2.53;;;;;;;1.95;86.61;99993.22;5039758;28;20049;-75
2022/03/31 06:03:57;;;;;;;3.35;2.70;;;;;;;1.94;86.65;99991.53;5039707;28;20053;-75
2022/03/31 06:06:23;;;;;;;3.03;2.72;;;;;;;1.92;86.75;99993.38;5040416;28;20032;-75
2022/03/31 06:08:49;;;;;;;2.60;2.40;;;;;;;1.93;87.35;99991.63;5031309;28;20021;-74
2022/03/31 06:11:14;;;;;;;4.05;2.47;;;;;;;1.88;86.98;99995.31;5031758;28;20106;-75
2022/03/31 06:13:40;;;;;;;2.53;2.33;;;;;;;1.89;87.13;99991.78;5030889;28;20064;-75
2022/03/31 06:16:06;;;;;;;2.80;2.60;;;;;;;1.87;87.95;99987.59;5030838;28;20155;-75
2022/03/31 06:18:31;;;;;;;2.50;2.30;;;;;;;1.88;87.32;99990.13;5032063;28;20029;-75
2022/03/31 06:20:57;;;;;;;2.58;2.38;;;;;;;1.87;87.98;100000.56;5031926;28;20026;-75
2022/03/31 06:23:22;;;;;;;2.85;2.55;;;;;;;1.85;88.26;100005.84;5029370;28;20033;-75
2022/03/31 06:25:48;;;;;;;3.75;2.55;;;;;;;1.86;87.93;100007.50;5031721;28;20021;-75
2022/03/31 06:28:14;;;;;;;3.72;2.80;;;;;;;1.85;88.82;100003.25;5030955;28;20026;-75
2022/03/31 06:30:40;;;;;;;3.22;2.92;;;;;;;1.86;88.66;100010.09;5024137;28;20021;-74
2022/03/31 06:33:05;;;;;;;3.17;2.75;;;;;;;1.87;88.32;100008.34;5014213;28;20112;-74
2022/03/31 06:35:31;;;;;;;3.03;2.83;;;;;;;1.82;88.38;100000.81;5025584;28;20116;-74
2022/03/31 06:37:56;;;;;;;3.55;3.25;;;;;;;1.84;88.61;100008.50;5023272;28;20452;-74
2022/03/31 06:40:21;;;;;;;3.97;3.55;;;;;;;1.87;89.11;100011.78;5011860;28;20068;-74
2022/03/31 06:42:47;;;;;;;3.88;3.55;;;;;;;1.88;89.50;100018.66;5015320;28;20394;-74
2022/03/31 06:45:16;;;;;;;4.40;3.58;;;;;;;1.88;89.21;100005.69;5010556;28;20083;-74
2022/03/31 06:47:45;;;;;;;3.90;3.60;;;;;;;1.89;89.41;100015.13;5021032;28;20120;-74
2022/03/31 06:50:11;;;;;;;4.07;3.78;;;;;;;1.88;89.37;100018.66;5014201;28;20018;-76
2022/03/31 06:52:37;;;;;;;4.50;4.10;;;;;;;1.88;89.05;100026.44;5012220;28;20028;-76
2022/03/31 06:55:03;;;;;;;4.65;4.25;;;;;;;1.84;89.49;100014.53;5024847;28;20109;-76
2022/03/31 06:57:28;;;;;;;4.95;4.45;;;;;;;1.83;89.78;100019.81;5023641;28;20091;-76
2022/03/31 06:59:54;;;;;;;4.60;4.15;;;;;;;1.81;89.36;100016.44;5030602;28;20026;-76
2022/03/31 07:02:19;;;;;;;5.47;4.72;;;;;;;1.83;90.10;100017.22;5021757;28;20021;-76
2022/03/31 07:04:44;;;;;;;5.85;5.22;;;;;;;1.82;90.25;100013.78;5008315;28;20100;-76
2022/03/31 07:07:10;;;;;;;11.77;5.50;;;;;;;1.83;90.28;100012.84;5017394;28;20060;-76
2022/03/31 07:09:35;;;;;;;4.82;4.30;;;;;;;1.81;89.78;100001.72;5028739;28;20022;-76
2022/03/31 07:12:01;;;;;;;5.93;4.78;;;;;;;1.81;90.82;100004.31;5021414;28;20060;-76
2022/03/31 07:14:26;;;;;;;4.22;3.83;;;;;;;1.82;90.26;100006.00;5016968;28;20075;-74
2022/03/31 07:16:52;;;;;;;4.55;4.15;;;;;;;1.80;90.55;100007.84;5019938;28;20026;-74
2022/03/31 07:19:17;;;;;;;5.53;5.03;;;;;;;1.83;90.87;100012.03;5013453;28;20134;-74
2022/03/31 07:21:43;;;;;;;4.78;4.38;;;;;;;1.84;91.21;100009.34;5019943;28;20112;-74
2022/03/31 07:24:09;;;;;;;7.20;4.88;;;;;;;1.87;91.19;100004.00;5012629;28;20022;-75
2022/03/31 07:26:34;;;;;;;5.22;4.72;;;;;;;1.86;91.17;100011.84;5023107;28;20040;-75
2022/03/31 07:29:03;;;;;;;5.40;4.90;;;;;;;1.87;91.43;100005.75;5021885;28;20021;-75
2022/03/31 07:31:29;;;;;;;5.78;5.00;;;;;;;1.88;91.80;100018.66;5024092;28;20037;-75
2022/03/31 07:33:56;;;;;;;5.38;4.88;;;;;;;1.89;91.77;100011.69;5015899;28;20045;-75
2022/03/31 07:36:21;;;;;;;5.70;5.20;;;;;;;1.89;91.70;100011.69;5019177;28;20505;-76
2022/03/31 07:38:46;;;;;;;5.38;4.82;;;;;;;1.89;91.95;100012.53;5016582;28;20022;-75
2022/03/31 07:41:12;;;;;;;5.93;5.20;;;;;;;1.88;91.97;100016.06;5015817;28;20022;-75
2022/03/31 07:43:38;;;;;;;7.40;5.43;;;;;;;1.87;91.60;100018.72;5023872;28;20034;-75
2022/03/31 07:46:04;;;;;;;5.28;4.80;;;;;;;1.81;91.56;100013.84;5014763;28;20026;-75
2022/03/31 07:48:33;;;;;;;5.70;5.13;;;;;;;1.86;91.57;100011.84;5014145;28;20101;-75
2022/03/31 07:50:59;;;;;;;5.57;5.07;;;;;;;1.87;92.39;100014.38;5012900;28;20014;-75
2022/03/31 07:53:32;;;;;;;5.60;5.10;;;;;;;1.86;92.79;100011.84;5026880;28;20503;-75
2022/03/31 07:56:05;;;;;;;5.38;4.88;;;;;;;1.88;92.38;100016.06;5010043;28;20489;-75
2022/03/31 07:58:32;;;;;;;5.40;4.90;;;;;;;1.91;92.70;100006.44;5021811;28;20026;-76
2022/03/31 08:00:58;;;;;;;5.93;4.82;;;;;;;1.94;92.82;100014.06;5015047;28;20038;-76
2022/03/31 08:03:24;;;;;;;4.85;4.40;;;;;;;1.92;92.80;100006.34;5019722;28;20034;-75
2022/03/31 08:05:50;;;;;;;4.88;4.38;;;;;;;1.95;92.64;100006.19;5017513;28;20036;-76
2022/03/31 08:08:16;;;;;;;4.53;4.13;;;;;;;1.97;92.68;99998.31;5021836;28;20075;-76
2022/03/31 08:10:41;;;;;;;5.72;4.32;;;;;;;1.99;92.64;100001.69;5010194;28;20037;-76
2022/03/31 08:13:08;;;;;;;4.88;4.40;;;;;;;2.03;93.22;99992.84;5025369;28;20025;-74
2022/03/31 08:15:34;;;;;;;5.18;4.50;;;;;;;2.01;93.41;99995.53;5012940;28;20032;-76
2022/03/31 08:17:59;;;;;;;4.78;4.38;;;;;;;2.01;92.93;99989.50;5016530;28;20033;-76
2022/03/31 08:20:25;;;;;;;4.68;4.28;;;;;;;2.03;92.68;99995.44;5020103;28;20030;-76
2022/03/31 08:22:51;;;;;;;4.90;4.50;;;;;;;2.03;93.24;99987.66;5010658;28;20108;-76
2022/03/31 08:25:17;;;;;;;4.80;4.30;;;;;;;2.06;93.13;99987.50;5024703;28;20051;-76
2022/03/31 08:27:44;;;;;;;4.88;4.45;;;;;;;2.06;93.02;99996.13;5010907;28;20022;-73
2022/03/31 08:30:13;;;;;;;5.80;5.22;;;;;;;2.10;94.48;99994.19;5017613;28;20026;-76
2022/03/31 08:32:39;;;;;;;5.50;4.90;;;;;;;2.15;93.64;100003.41;5024170;28;20037;-76
2022/03/31 08:35:06;;;;;;;8.00;5.70;;;;;;;2.16;94.22;100004.25;5020200;28;20391;-77
2022/03/31 08:37:32;;;;;;;6.05;5.22;;;;;;;2.19;94.12;99998.88;5049622;28;20049;-76
2022/03/31 08:39:58;;;;;;;5.63;5.05;;;;;;;2.21;93.72;99997.06;5022739;28;20028;-76
2022/03/31 08:42:23;;;;;;;6.68;5.25;;;;;;;2.24;94.25;99998.63;5021551;28;20017;-77
2022/03/31 08:44:50;;;;;;;5.72;5.22;;;;;;;2.26;93.84;100009.78;5046847;28;20029;-77
2022/03/31 08:47:17;;;;;;;5.93;5.20;;;;;;;2.27;94.04;100004.50;5030621;28;20421;-77
2022/03/31 08:49:43;;;;;;;6.63;5.25;;;;;;;2.29;93.42;100000.06;5025324;28;20032;-76
2022/03/31 08:52:09;;;;;;;5.20;4.63;;;;;;;2.31;93.07;100013.81;5051475;28;20076;-77
2022/03/31 08:54:34;;;;;;;5.70;5.10;;;;;;;2.33;93.25;100006.78;5021494;28;20029;-77
2022/03/31 08:56:59;;;;;;;6.90;5.25;;;;;;;2.38;93.41;100009.94;5017835;28;20030;-76
2022/03/31 08:59:25;;;;;;;5.50;5.00;;;;;;;2.41;93.67;100009.81;5052255;28;20075;-77
2022/03/31 09:01:51;;;;;;;5.38;4.90;;;;;;;2.42;93.96;100001.09;5021467;28;20037;-76
2022/03/31 09:04:24;;;;;;;5.70;5.20;;;;;;;2.48;93.70;100011.16;5014382;28;20127;-76
2022/03/31 09:07:04;;;;;;;5.18;4.68;;;;;;;2.50;92.71;100014.50;5010535;28;20049;-77
2022/03/31 09:09:29;;;;;;;5.45;4.78;;;;;;;2.54;92.74;100009.97;5016732;28;20528;-76
2022/03/31 09:11:55;;;;;;;5.50;4.88;;;;;;;2.60;93.27;100011.41;5015120;28;20029;-77
2022/03/31 09:14:31;;;;;;;6.03;5.40;;;;;;;2.65;93.25;100011.97;5020183;28;20029;-77
2022/03/31 09:16:57;;;;;;;6.00;4.90;;;;;;;2.69;93.44;100013.50;5021409;28;20041;-77
2022/03/31 09:19:24;;;;;;;7.82;5.38;;;;;;;2.70;93.43;100016.00;5040115;28;20076;-77
2022/03/31 09:21:51;;;;;;;5.47;4.88;;;;;;;2.72;93.15;100013.31;5023903;28;20044;-77
2022/03/31 09:24:18;;;;;;;5.80;5.20;;;;;;;2.75;92.22;100013.16;5018869;28;20376;-77
2022/03/31 09:26:49;;;;;;;7.07;5.90;;;;;;;2.77;92.81;100013.91;5026016;28;20017;-78
2022/03/31 09:29:15;;;;;;;5.90;5.30;;;;;;;2.80;92.79;100013.72;5028442;28;20519;-78
2022/03/31 09:31:41;;;;;;;6.57;5.78;;;;;;;2.80;91.85;100016.31;5033881;28;20024;-77
2022/03/31 09:34:08;;;;;;;7.70;5.85;;;;;;;2.82;92.47;100019.72;5029376;28;20041;-77
2022/03/31 09:36:34;;;;;;;6.07;5.47;;;;;;;2.81;91.78;100012.84;5024920;28;20038;-77
2022/03/31 09:39:05;;;;;;;7.63;5.50;;;;;;;2.85;91.15;100019.53;5027407;28;20052;-77
2022/03/31 09:41:36;;;;;;;8.98;5.55;;;;;;;2.88;91.74;100018.53;5026946;28;20082;-77
2022/03/31 09:44:07;;;;;;;7.55;6.03;;;;;;;2.91;91.36;100010.56;5028092;28;20021;-76
2022/03/31 09:46:38;;;;;;;6.55;5.78;;;;;;;2.92;92.10;100010.47;5027745;28;20075;-77
2022/03/31 09:49:16;;;;;;;7.47;5.55;;;;;;;2.91;91.82;100011.41;5060179;28;20021;-77
2022/03/31 09:51:44;;;;;;;6.28;5.13;;;;;;;2.94;91.44;100016.41;5027237;28;20033;-77
2022/03/31 09:54:10;;;;;;;7.00;5.40;;;;;;;2.94;90.82;100019.00;5027475;28;20524;-77
2022/03/31 09:56:38;;;;;;;6.47;5.25;;;;;;;2.96;92.05;100014.56;5028753;28;20125;-77
2022/03/31 09:59:05;;;;;;;8.00;5.32;;;;;;;2.97;91.24;100012.81;5029134;28;20373;-77
2022/03/31 10:01:34;;;;;;;6.20;5.55;;;;;;;2.98;91.10;100007.53;5030033;28;20093;-77
2022/03/31 10:04:02;;;;;;;5.55;5.05;;;;;;;3.01;91.43;100009.13;5029375;28;20120;-77
2022/03/31 10:06:27;;;;;;;5.63;5.10;;;;;;;3.01;91.05;100004.75;5028996;28;20044;-78
2022/03/31 10:08:56;;;;;;;6.68;5.43;;;;;;;3.04;91.26;100006.34;5022777;28;20019;-77
2022/03/31 10:11:23;;;;;;;5.97;5.38;;;;;;;3.06;90.87;100001.88;5028115;28;20086;-77
2022/03/31 10:14:07;;;;;;;6.53;5.72;;;;;;;3.06;90.77;99997.53;5023811;28;20046;-77
2022/03/31 10:16:47;;;;;;;5.85;5.30;;;;;;;3.08;91.22;99995.69;5005835;28;20052;-77
2022/03/31 10:19:35;;;;;;;5.68;5.18;;;;;;;3.11;91.26;100011.09;5017246;28;20025;-77
2022/03/31 10:24:56;;;;;;;5.70;5.10;;;;;;;3.14;90.72;100005.72;5025159;28;20040;-77
2022/03/31 10:27:33;;;;;;;6.20;5.32;;;;;;;3.18;91.10;100005.53;5026491;28;20029;-77
2022/03/31 10:30:15;;;;;;;5.47;4.47;;;;;;;3.22;90.51;100007.06;5027513;28;20029;-77
2022/03/31 10:32:51;;;;;;;6.00;5.40;;;;;;;3.25;90.68;100014.69;5025379;28;20029;-78
2022/03/31 10:35:22;;;;;;;5.60;4.72;;;;;;;3.26;90.97;100008.56;5022695;28;20077;-77
2022/03/31 10:37:47;;;;;;;5.63;5.00;;;;;;;3.29;91.17;100011.00;5021420;28;20025;-78
2022/03/31 10:40:13;;;;;;;5.43;4.93;;;;;;;3.32;90.70;100003.03;5025707;28;20491;-77
2022/03/31 10:42:38;;;;;;;6.13;5.10;;;;;;;3.36;91.74;100004.50;5019868;28;20037;-77
2022/03/31 10:45:13;;;;;;;5.65;4.80;;;;;;;3.39;91.11;100007.78;5030063;28;20021;-77
2022/03/31 10:47:41;;;;;;;5.28;4.65;;;;;;;3.39;90.66;100005.16;5025058;28;20393;-77
2022/03/31 10:50:09;;;;;;;7.10;5.35;;;;;;;3.43;90.42;100000.63;5009596;28;20569;-77
2022/03/31 10:52:35;;;;;;;5.82;4.80;;;;;;;3.48;90.40;99998.59;5015257;28;20029;-77
2022/03/31 10:55:07;;;;;;;6.07;5.47;;;;;;;3.54;91.45;99997.38;5023208;28;20056;-77
2022/03/31 10:57:43;;;;;;;6.47;5.25;;;;;;;3.58;91.42;99997.13;5015561;28;20034;-77
2022/03/31 11:00:12;;;;;;;6.07;5.47;;;;;;;3.59;90.35;100001.41;5014386;28;20100;-77
2022/03/31 11:02:44;;;;;;;6.90;5.50;;;;;;;3.63;90.14;99989.91;5014571;28;20049;-78
2022/03/31 11:05:10;;;;;;;5.18;4.68;;;;;;;3.64;90.04;99994.19;5052061;28;20421;-77
2022/03/31 11:07:35;;;;;;;5.47;4.97;;;;;;;3.67;89.14;99998.38;5015343;28;20029;-77
2022/03/31 11:10:13;;;;;;;5.03;4.63;;;;;;;3.66;88.52;99992.31;5012549;28;20021;-77
2022/03/31 11:12:39;;;;;;;5.63;5.13;;;;;;;3.67;89.18;99996.59;5058458;28;20025;-77
2022/03/31 11:15:10;;;;;;;6.00;5.40;;;;;;;3.72;89.14;99999.75;5031474;28;20466;-77
2022/03/31 11:17:41;;;;;;;5.65;4.88;;;;;;;3.76;88.71;99993.44;5017757;28;20407;-76
2022/03/31 11:20:16;;;;;;;5.47;4.97;;;;;;;3.77;88.80;99987.31;5017155;28;20017;-76
2022/03/31 11:22:50;;;;;;;5.85;5.25;;;;;;;3.82;88.62;99988.81;5018692;28;20060;-76
2022/03/31 11:25:16;;;;;;;7.47;5.28;;;;;;;3.82;87.89;99975.78;5027138;28;20056;-76
2022/03/31 11:27:43;;;;;;;5.35;4.90;;;;;;;3.87;89.11;99968.53;5030913;28;20477;-76
2022/03/31 11:30:18;;;;;;;5.85;5.35;;;;;;;3.89;88.37;99977.09;5019943;28;20389;-76
2022/03/31 11:32:45;;;;;;;5.30;4.80;;;;;;;3.93;88.27;99969.00;5011794;28;20064;-76
2022/03/31 11:35:17;;;;;;;6.03;5.03;;;;;;;3.97;88.67;99969.66;5028678;28;20050;-76
2022/03/31 11:38:03;;;;;;;5.03;4.53;;;;;;;4.01;88.79;99964.19;5030894;28;20036;-76